BRO weather

Brownsville South Padre Island International Airport
Brownsville, Texas, United States

Public forecast

Using degrees Fahrenheit for public forecast. Weather courtesy of forecast.io.

Current aviation weather report (METAR) for Brownsville South Padre Island International Airport

Retrieved 2019/10/23 02:53 UTC (44 minutes ago):

KBRO 230253Z 08006KT 10SM CLR 23/16 A3008 RMK AO2 SLP184 T02280161 53014

Aviation forecast (TAF) for Brownsville South Padre Island International Airport

Retrieved 2019-10-23 00:30 UTC (3 hours ago):

TAF KBRO 222327Z 2300/2324 06013G20KT P6SM FEW040 SCT250 FM231300 09005KT P6SM FEW060 FEW250 FM231800 11012G20KT P6SM FEW035 SCT250